sensor_id;sensor_type;location;lat;lon;timestamp;P1;durP1;ratioP1;P2;durP2;ratioP2
56712;SDS011;42589;45.536;9.032;2022-12-29T00:01:49;125.87;;;77.37;;
56712;SDS011;42589;45.536;9.032;2022-12-29T00:04:50;124.13;;;75.65;;
56712;SDS011;42589;45.536;9.032;2022-12-29T00:07:56;129.48;;;77.30;;
56712;SDS011;42589;45.536;9.032;2022-12-29T00:10:57;130.93;;;79.07;;
56712;SDS011;42589;45.536;9.032;2022-12-29T00:13:58;121.78;;;75.05;;
56712;SDS011;42589;45.536;9.032;2022-12-29T00:17:17;126.55;;;74.63;;
56712;SDS011;42589;45.536;9.032;2022-12-29T00:20:18;123.65;;;74.57;;
56712;SDS011;42589;45.536;9.032;2022-12-29T00:23:36;130.98;;;77.40;;
56712;SDS011;42589;45.536;9.032;2022-12-29T00:27:17;121.32;;;75.63;;
56712;SDS011;42589;45.536;9.032;2022-12-29T00:30:34;129.68;;;78.13;;
56712;SDS011;42589;45.536;9.032;2022-12-29T00:33:53;126.03;;;75.97;;
56712;SDS011;42589;45.536;9.032;2022-12-29T00:37:12;127.43;;;77.18;;
56712;SDS011;42589;45.536;9.032;2022-12-29T00:43:36;130.38;;;77.97;;
56712;SDS011;42589;45.536;9.032;2022-12-29T00:46:55;130.45;;;77.07;;
56712;SDS011;42589;45.536;9.032;2022-12-29T00:49:55;123.30;;;75.10;;
56712;SDS011;42589;45.536;9.032;2022-12-29T00:52:56;127.60;;;77.28;;
56712;SDS011;42589;45.536;9.032;2022-12-29T00:55:58;124.82;;;76.90;;
56712;SDS011;42589;45.536;9.032;2022-12-29T00:59:05;128.18;;;76.90;;
56712;SDS011;42589;45.536;9.032;2022-12-29T01:02:06;130.48;;;77.75;;
56712;SDS011;42589;45.536;9.032;2022-12-29T01:05:07;125.22;;;76.93;;
56712;SDS011;42589;45.536;9.032;2022-12-29T01:08:09;127.45;;;76.22;;
56712;SDS011;42589;45.536;9.032;2022-12-29T01:11:10;127.22;;;76.50;;
56712;SDS011;42589;45.536;9.032;2022-12-29T01:14:11;122.63;;;75.18;;
56712;SDS011;42589;45.536;9.032;2022-12-29T01:17:12;127.25;;;74.90;;
56712;SDS011;42589;45.536;9.032;2022-12-29T01:20:13;115.95;;;75.43;;
56712;SDS011;42589;45.536;9.032;2022-12-29T01:23:14;116.45;;;72.53;;
56712;SDS011;42589;45.536;9.032;2022-12-29T01:26:15;115.32;;;72.00;;
56712;SDS011;42589;45.536;9.032;2022-12-29T01:29:17;115.75;;;71.55;;
56712;SDS011;42589;45.536;9.032;2022-12-29T01:32:17;116.40;;;70.70;;
56712;SDS011;42589;45.536;9.032;2022-12-29T01:35:17;118.97;;;71.22;;
56712;SDS011;42589;45.536;9.032;2022-12-29T01:38:18;113.47;;;68.63;;
56712;SDS011;42589;45.536;9.032;2022-12-29T01:41:19;115.55;;;68.68;;
56712;SDS011;42589;45.536;9.032;2022-12-29T01:47:39;104.35;;;65.75;;
56712;SDS011;42589;45.536;9.032;2022-12-29T01:50:46;108.28;;;66.65;;
56712;SDS011;42589;45.536;9.032;2022-12-29T01:53:51;108.00;;;67.15;;
56712;SDS011;42589;45.536;9.032;2022-12-29T01:56:53;115.45;;;68.63;;
56712;SDS011;42589;45.536;9.032;2022-12-29T02:00:06;110.43;;;67.57;;
56712;SDS011;42589;45.536;9.032;2022-12-29T02:03:09;109.82;;;67.20;;
56712;SDS011;42589;45.536;9.032;2022-12-29T02:09:17;110.82;;;67.60;;
56712;SDS011;42589;45.536;9.032;2022-12-29T02:12:18;104.93;;;65.30;;
56712;SDS011;42589;45.536;9.032;2022-12-29T02:15:21;104.95;;;64.90;;
56712;SDS011;42589;45.536;9.032;2022-12-29T02:18:29;106.53;;;65.03;;
56712;SDS011;42589;45.536;9.032;2022-12-29T02:28:06;110.60;;;67.70;;
56712;SDS011;42589;45.536;9.032;2022-12-29T02:31:16;105.15;;;66.53;;
56712;SDS011;42589;45.536;9.032;2022-12-29T02:46:43;108.70;;;65.15;;
56712;SDS011;42589;45.536;9.032;2022-12-29T02:52:58;106.63;;;66.60;;
56712;SDS011;42589;45.536;9.032;2022-12-29T02:55:59;106.50;;;65.53;;
56712;SDS011;42589;45.536;9.032;2022-12-29T02:59:00;104.70;;;65.40;;
56712;SDS011;42589;45.536;9.032;2022-12-29T03:02:07;107.43;;;65.00;;
56712;SDS011;42589;45.536;9.032;2022-12-29T03:05:34;108.30;;;65.82;;
56712;SDS011;42589;45.536;9.032;2022-12-29T03:15:33;104.30;;;67.03;;
56712;SDS011;42589;45.536;9.032;2022-12-29T03:22:21;104.85;;;65.40;;
56712;SDS011;42589;45.536;9.032;2022-12-29T03:25:31;103.90;;;64.95;;
56712;SDS011;42589;45.536;9.032;2022-12-29T03:28:38;102.32;;;63.97;;
56712;SDS011;42589;45.536;9.032;2022-12-29T03:31:39;105.40;;;64.53;;
56712;SDS011;42589;45.536;9.032;2022-12-29T03:34:41;104.10;;;63.78;;
56712;SDS011;42589;45.536;9.032;2022-12-29T03:37:47;105.35;;;63.75;;
56712;SDS011;42589;45.536;9.032;2022-12-29T03:40:51;105.97;;;64.10;;
56712;SDS011;42589;45.536;9.032;2022-12-29T03:43:52;106.25;;;64.80;;
56712;SDS011;42589;45.536;9.032;2022-12-29T03:46:53;109.00;;;64.78;;
56712;SDS011;42589;45.536;9.032;2022-12-29T03:49:53;103.55;;;64.03;;
56712;SDS011;42589;45.536;9.032;2022-12-29T03:52:55;106.20;;;64.18;;
56712;SDS011;42589;45.536;9.032;2022-12-29T03:55:55;105.75;;;66.00;;
56712;SDS011;42589;45.536;9.032;2022-12-29T03:58:57;103.10;;;63.75;;
56712;SDS011;42589;45.536;9.032;2022-12-29T04:01:57;107.47;;;66.70;;
56712;SDS011;42589;45.536;9.032;2022-12-29T04:04:58;107.18;;;66.72;;
56712;SDS011;42589;45.536;9.032;2022-12-29T04:08:00;102.78;;;63.85;;
56712;SDS011;42589;45.536;9.032;2022-12-29T04:11:00;102.22;;;65.57;;
56712;SDS011;42589;45.536;9.032;2022-12-29T04:14:01;99.10;;;61.92;;
56712;SDS011;42589;45.536;9.032;2022-12-29T04:17:02;103.47;;;64.38;;
56712;SDS011;42589;45.536;9.032;2022-12-29T04:20:03;105.65;;;65.55;;
56712;SDS011;42589;45.536;9.032;2022-12-29T04:23:21;105.10;;;64.32;;
56712;SDS011;42589;45.536;9.032;2022-12-29T04:26:22;101.47;;;63.65;;
56712;SDS011;42589;45.536;9.032;2022-12-29T04:29:22;103.55;;;64.18;;
56712;SDS011;42589;45.536;9.032;2022-12-29T04:32:23;99.15;;;63.35;;
56712;SDS011;42589;45.536;9.032;2022-12-29T04:35:23;97.10;;;61.00;;
56712;SDS011;42589;45.536;9.032;2022-12-29T04:38:24;98.68;;;63.65;;
56712;SDS011;42589;45.536;9.032;2022-12-29T04:41:25;106.07;;;64.70;;
56712;SDS011;42589;45.536;9.032;2022-12-29T04:44:26;98.35;;;60.53;;
56712;SDS011;42589;45.536;9.032;2022-12-29T04:47:26;95.47;;;60.75;;
56712;SDS011;42589;45.536;9.032;2022-12-29T04:50:27;97.00;;;61.78;;
56712;SDS011;42589;45.536;9.032;2022-12-29T04:53:28;98.20;;;61.63;;
56712;SDS011;42589;45.536;9.032;2022-12-29T04:56:29;96.78;;;61.13;;
56712;SDS011;42589;45.536;9.032;2022-12-29T04:59:30;99.88;;;62.50;;
56712;SDS011;42589;45.536;9.032;2022-12-29T05:02:30;97.63;;;61.20;;
56712;SDS011;42589;45.536;9.032;2022-12-29T05:05:30;96.20;;;60.30;;
56712;SDS011;42589;45.536;9.032;2022-12-29T05:08:32;100.38;;;62.70;;
56712;SDS011;42589;45.536;9.032;2022-12-29T05:11:32;94.93;;;59.40;;
56712;SDS011;42589;45.536;9.032;2022-12-29T05:14:33;94.78;;;60.03;;
56712;SDS011;42589;45.536;9.032;2022-12-29T05:17:34;97.40;;;60.22;;
56712;SDS011;42589;45.536;9.032;2022-12-29T05:20:34;96.88;;;62.20;;
56712;SDS011;42589;45.536;9.032;2022-12-29T05:23:35;97.45;;;62.85;;
56712;SDS011;42589;45.536;9.032;2022-12-29T05:26:36;96.45;;;60.40;;
56712;SDS011;42589;45.536;9.032;2022-12-29T05:29:36;95.15;;;59.75;;
56712;SDS011;42589;45.536;9.032;2022-12-29T05:32:37;96.47;;;60.03;;
56712;SDS011;42589;45.536;9.032;2022-12-29T05:35:38;91.35;;;59.55;;
56712;SDS011;42589;45.536;9.032;2022-12-29T05:38:38;93.55;;;59.50;;
56712;SDS011;42589;45.536;9.032;2022-12-29T05:41:40;90.10;;;57.90;;
56712;SDS011;42589;45.536;9.032;2022-12-29T05:44:41;89.60;;;57.92;;
56712;SDS011;42589;45.536;9.032;2022-12-29T05:47:41;91.03;;;56.85;;
56712;SDS011;42589;45.536;9.032;2022-12-29T05:50:41;91.60;;;58.67;;
56712;SDS011;42589;45.536;9.032;2022-12-29T05:53:43;91.95;;;59.15;;
56712;SDS011;42589;45.536;9.032;2022-12-29T05:56:43;92.80;;;59.92;;
56712;SDS011;42589;45.536;9.032;2022-12-29T05:59:44;92.27;;;57.63;;
56712;SDS011;42589;45.536;9.032;2022-12-29T06:02:44;97.65;;;58.55;;
56712;SDS011;42589;45.536;9.032;2022-12-29T06:05:45;91.63;;;57.67;;
56712;SDS011;42589;45.536;9.032;2022-12-29T06:08:46;86.28;;;56.65;;
56712;SDS011;42589;45.536;9.032;2022-12-29T06:11:47;88.25;;;55.35;;
56712;SDS011;42589;45.536;9.032;2022-12-29T06:14:48;90.57;;;56.05;;
56712;SDS011;42589;45.536;9.032;2022-12-29T06:17:48;91.32;;;57.13;;
56712;SDS011;42589;45.536;9.032;2022-12-29T06:20:49;90.20;;;57.95;;
56712;SDS011;42589;45.536;9.032;2022-12-29T06:23:50;87.47;;;56.08;;
56712;SDS011;42589;45.536;9.032;2022-12-29T06:26:51;93.63;;;58.47;;
56712;SDS011;42589;45.536;9.032;2022-12-29T06:29:51;87.32;;;57.03;;
56712;SDS011;42589;45.536;9.032;2022-12-29T06:32:52;88.95;;;56.70;;
56712;SDS011;42589;45.536;9.032;2022-12-29T06:35:54;89.55;;;56.95;;
56712;SDS011;42589;45.536;9.032;2022-12-29T06:38:54;92.25;;;59.25;;
56712;SDS011;42589;45.536;9.032;2022-12-29T06:41:54;93.43;;;59.75;;
56712;SDS011;42589;45.536;9.032;2022-12-29T06:44:55;89.45;;;57.63;;
56712;SDS011;42589;45.536;9.032;2022-12-29T06:47:58;85.70;;;55.83;;
56712;SDS011;42589;45.536;9.032;2022-12-29T06:50:59;91.88;;;57.25;;
56712;SDS011;42589;45.536;9.032;2022-12-29T06:54:00;98.68;;;60.10;;
56712;SDS011;42589;45.536;9.032;2022-12-29T06:57:00;90.10;;;59.08;;
56712;SDS011;42589;45.536;9.032;2022-12-29T07:00:01;86.93;;;57.20;;
56712;SDS011;42589;45.536;9.032;2022-12-29T07:03:01;88.85;;;57.58;;
56712;SDS011;42589;45.536;9.032;2022-12-29T07:06:02;96.43;;;59.60;;
56712;SDS011;42589;45.536;9.032;2022-12-29T07:09:02;95.07;;;62.25;;
56712;SDS011;42589;45.536;9.032;2022-12-29T07:12:03;99.10;;;62.00;;
56712;SDS011;42589;45.536;9.032;2022-12-29T07:15:05;93.50;;;60.45;;
56712;SDS011;42589;45.536;9.032;2022-12-29T07:18:06;99.32;;;62.65;;
56712;SDS011;42589;45.536;9.032;2022-12-29T07:21:07;97.05;;;61.50;;
56712;SDS011;42589;45.536;9.032;2022-12-29T07:24:09;96.28;;;60.83;;
56712;SDS011;42589;45.536;9.032;2022-12-29T07:27:09;97.53;;;61.58;;
56712;SDS011;42589;45.536;9.032;2022-12-29T07:30:10;98.55;;;63.35;;
56712;SDS011;42589;45.536;9.032;2022-12-29T07:33:11;91.60;;;59.35;;
56712;SDS011;42589;45.536;9.032;2022-12-29T07:36:12;92.78;;;59.83;;
56712;SDS011;42589;45.536;9.032;2022-12-29T07:39:13;99.55;;;61.92;;
56712;SDS011;42589;45.536;9.032;2022-12-29T07:42:13;106.03;;;65.38;;
56712;SDS011;42589;45.536;9.032;2022-12-29T07:45:14;96.50;;;62.53;;
56712;SDS011;42589;45.536;9.032;2022-12-29T07:48:14;95.00;;;60.92;;
56712;SDS011;42589;45.536;9.032;2022-12-29T07:51:15;102.95;;;62.03;;
56712;SDS011;42589;45.536;9.032;2022-12-29T07:54:16;103.53;;;63.97;;
56712;SDS011;42589;45.536;9.032;2022-12-29T07:57:22;95.38;;;59.95;;
56712;SDS011;42589;45.536;9.032;2022-12-29T08:00:23;96.05;;;62.47;;
56712;SDS011;42589;45.536;9.032;2022-12-29T08:03:24;100.45;;;60.95;;
56712;SDS011;42589;45.536;9.032;2022-12-29T08:06:25;93.05;;;60.72;;
56712;SDS011;42589;45.536;9.032;2022-12-29T08:09:26;95.50;;;60.55;;
56712;SDS011;42589;45.536;9.032;2022-12-29T08:12:27;97.25;;;63.08;;
56712;SDS011;42589;45.536;9.032;2022-12-29T08:15:30;97.22;;;64.95;;
56712;SDS011;42589;45.536;9.032;2022-12-29T08:18:30;91.82;;;61.13;;
56712;SDS011;42589;45.536;9.032;2022-12-29T08:21:31;88.53;;;58.15;;
56712;SDS011;42589;45.536;9.032;2022-12-29T08:24:32;84.75;;;56.22;;
56712;SDS011;42589;45.536;9.032;2022-12-29T08:27:33;83.30;;;56.75;;
56712;SDS011;42589;45.536;9.032;2022-12-29T08:30:35;84.30;;;55.83;;
56712;SDS011;42589;45.536;9.032;2022-12-29T08:33:36;83.95;;;55.65;;
56712;SDS011;42589;45.536;9.032;2022-12-29T08:36:36;81.00;;;56.42;;
56712;SDS011;42589;45.536;9.032;2022-12-29T08:39:37;88.20;;;59.30;;
56712;SDS011;42589;45.536;9.032;2022-12-29T08:42:38;93.07;;;60.30;;
56712;SDS011;42589;45.536;9.032;2022-12-29T08:45:39;91.40;;;60.25;;
56712;SDS011;42589;45.536;9.032;2022-12-29T08:51:44;87.10;;;58.38;;
56712;SDS011;42589;45.536;9.032;2022-12-29T08:54:44;93.32;;;61.65;;
56712;SDS011;42589;45.536;9.032;2022-12-29T08:57:45;91.95;;;62.85;;
56712;SDS011;42589;45.536;9.032;2022-12-29T09:00:49;96.88;;;64.15;;
56712;SDS011;42589;45.536;9.032;2022-12-29T09:03:50;89.60;;;60.92;;
56712;SDS011;42589;45.536;9.032;2022-12-29T09:06:51;92.93;;;62.95;;
56712;SDS011;42589;45.536;9.032;2022-12-29T09:09:51;93.40;;;62.38;;
56712;SDS011;42589;45.536;9.032;2022-12-29T09:12:52;93.25;;;64.38;;
56712;SDS011;42589;45.536;9.032;2022-12-29T09:15:57;87.40;;;60.22;;
56712;SDS011;42589;45.536;9.032;2022-12-29T09:18:58;93.30;;;61.08;;
56712;SDS011;42589;45.536;9.032;2022-12-29T09:21:59;94.57;;;62.30;;
56712;SDS011;42589;45.536;9.032;2022-12-29T09:24:59;91.88;;;62.05;;
56712;SDS011;42589;45.536;9.032;2022-12-29T09:28:03;89.28;;;61.67;;
56712;SDS011;42589;45.536;9.032;2022-12-29T09:31:07;95.28;;;63.03;;
56712;SDS011;42589;45.536;9.032;2022-12-29T09:34:07;89.57;;;59.72;;
56712;SDS011;42589;45.536;9.032;2022-12-29T09:37:08;94.32;;;62.28;;
56712;SDS011;42589;45.536;9.032;2022-12-29T09:40:31;90.45;;;60.80;;
56712;SDS011;42589;45.536;9.032;2022-12-29T09:43:43;84.38;;;58.92;;
56712;SDS011;42589;45.536;9.032;2022-12-29T09:46:48;95.20;;;60.92;;
56712;SDS011;42589;45.536;9.032;2022-12-29T09:49:57;83.15;;;57.65;;
56712;SDS011;42589;45.536;9.032;2022-12-29T09:53:16;80.32;;;54.83;;
56712;SDS011;42589;45.536;9.032;2022-12-29T09:56:20;76.03;;;53.70;;
56712;SDS011;42589;45.536;9.032;2022-12-29T09:59:22;75.35;;;53.25;;
56712;SDS011;42589;45.536;9.032;2022-12-29T10:05:51;75.05;;;51.95;;
56712;SDS011;42589;45.536;9.032;2022-12-29T10:09:02;73.35;;;50.85;;
56712;SDS011;42589;45.536;9.032;2022-12-29T10:15:33;76.82;;;53.22;;
56712;SDS011;42589;45.536;9.032;2022-12-29T10:22:04;82.37;;;54.33;;
56712;SDS011;42589;45.536;9.032;2022-12-29T10:25:18;86.13;;;57.15;;
56712;SDS011;42589;45.536;9.032;2022-12-29T10:28:23;79.93;;;56.80;;
56712;SDS011;42589;45.536;9.032;2022-12-29T10:31:25;83.65;;;55.40;;
56712;SDS011;42589;45.536;9.032;2022-12-29T10:34:31;81.55;;;55.65;;
56712;SDS011;42589;45.536;9.032;2022-12-29T10:37:38;79.20;;;53.92;;
56712;SDS011;42589;45.536;9.032;2022-12-29T10:43:51;80.32;;;56.40;;
56712;SDS011;42589;45.536;9.032;2022-12-29T10:47:00;80.57;;;56.40;;
56712;SDS011;42589;45.536;9.032;2022-12-29T10:50:02;81.00;;;55.63;;
56712;SDS011;42589;45.536;9.032;2022-12-29T10:53:04;84.00;;;56.60;;
56712;SDS011;42589;45.536;9.032;2022-12-29T10:56:09;82.05;;;57.08;;
56712;SDS011;42589;45.536;9.032;2022-12-29T10:59:19;88.05;;;58.50;;
56712;SDS011;42589;45.536;9.032;2022-12-29T11:08:53;81.95;;;56.42;;
56712;SDS011;42589;45.536;9.032;2022-12-29T11:15:11;84.65;;;56.97;;
56712;SDS011;42589;45.536;9.032;2022-12-29T11:18:19;87.22;;;59.28;;
56712;SDS011;42589;45.536;9.032;2022-12-29T11:24:29;87.93;;;62.10;;
56712;SDS011;42589;45.536;9.032;2022-12-29T11:27:30;89.07;;;60.90;;
56712;SDS011;42589;45.536;9.032;2022-12-29T11:30:31;82.25;;;57.90;;
56712;SDS011;42589;45.536;9.032;2022-12-29T11:33:32;94.03;;;61.88;;
56712;SDS011;42589;45.536;9.032;2022-12-29T11:36:33;88.50;;;62.33;;
56712;SDS011;42589;45.536;9.032;2022-12-29T11:39:36;90.28;;;62.72;;
56712;SDS011;42589;45.536;9.032;2022-12-29T11:42:41;89.25;;;61.17;;
56712;SDS011;42589;45.536;9.032;2022-12-29T11:45:47;86.95;;;59.22;;
56712;SDS011;42589;45.536;9.032;2022-12-29T11:48:47;82.50;;;57.95;;
56712;SDS011;42589;45.536;9.032;2022-12-29T11:51:48;82.22;;;57.42;;
56712;SDS011;42589;45.536;9.032;2022-12-29T11:54:50;84.72;;;59.13;;
56712;SDS011;42589;45.536;9.032;2022-12-29T11:57:51;90.38;;;60.13;;
56712;SDS011;42589;45.536;9.032;2022-12-29T12:00:52;83.80;;;59.33;;
56712;SDS011;42589;45.536;9.032;2022-12-29T12:03:59;87.32;;;60.53;;
56712;SDS011;42589;45.536;9.032;2022-12-29T12:07:03;83.50;;;58.42;;
56712;SDS011;42589;45.536;9.032;2022-12-29T12:16:09;92.65;;;63.55;;
56712;SDS011;42589;45.536;9.032;2022-12-29T12:19:23;102.82;;;64.75;;
56712;SDS011;42589;45.536;9.032;2022-12-29T12:22:31;102.00;;;60.65;;
56712;SDS011;42589;45.536;9.032;2022-12-29T12:25:35;83.45;;;54.42;;
56712;SDS011;42589;45.536;9.032;2022-12-29T12:31:55;77.97;;;52.17;;
56712;SDS011;42589;45.536;9.032;2022-12-29T12:34:56;74.35;;;51.28;;
56712;SDS011;42589;45.536;9.032;2022-12-29T12:38:01;73.07;;;50.83;;
56712;SDS011;42589;45.536;9.032;2022-12-29T12:41:11;73.20;;;52.22;;
56712;SDS011;42589;45.536;9.032;2022-12-29T12:45:07;75.38;;;52.60;;
56712;SDS011;42589;45.536;9.032;2022-12-29T12:51:13;74.03;;;50.05;;
56712;SDS011;42589;45.536;9.032;2022-12-29T13:22:56;74.95;;;52.25;;
56712;SDS011;42589;45.536;9.032;2022-12-29T13:26:42;72.50;;;52.15;;
56712;SDS011;42589;45.536;9.032;2022-12-29T13:29:36;77.22;;;52.40;;
56712;SDS011;42589;45.536;9.032;2022-12-29T13:38:46;72.28;;;50.53;;
56712;SDS011;42589;45.536;9.032;2022-12-29T13:41:50;67.07;;;49.83;;
56712;SDS011;42589;45.536;9.032;2022-12-29T13:45:33;77.40;;;52.45;;
56712;SDS011;42589;45.536;9.032;2022-12-29T13:48:19;66.60;;;48.80;;
56712;SDS011;42589;45.536;9.032;2022-12-29T13:51:24;73.78;;;52.60;;
56712;SDS011;42589;45.536;9.032;2022-12-29T14:01:08;73.70;;;51.67;;
56712;SDS011;42589;45.536;9.032;2022-12-29T14:04:12;62.97;;;47.55;;
56712;SDS011;42589;45.536;9.032;2022-12-29T14:07:15;70.32;;;50.08;;
56712;SDS011;42589;45.536;9.032;2022-12-29T14:13:26;69.88;;;49.88;;
56712;SDS011;42589;45.536;9.032;2022-12-29T14:16:33;70.53;;;50.22;;
56712;SDS011;42589;45.536;9.032;2022-12-29T14:19:35;66.10;;;46.95;;
56712;SDS011;42589;45.536;9.032;2022-12-29T14:22:36;62.83;;;47.67;;
56712;SDS011;42589;45.536;9.032;2022-12-29T14:25:56;74.18;;;50.67;;
56712;SDS011;42589;45.536;9.032;2022-12-29T14:29:15;73.05;;;51.95;;
56712;SDS011;42589;45.536;9.032;2022-12-29T14:33:00;68.18;;;49.22;;
56712;SDS011;42589;45.536;9.032;2022-12-29T14:35:42;69.55;;;49.95;;
56712;SDS011;42589;45.536;9.032;2022-12-29T14:38:46;70.75;;;50.75;;
56712;SDS011;42589;45.536;9.032;2022-12-29T14:41:46;71.32;;;51.22;;
56712;SDS011;42589;45.536;9.032;2022-12-29T14:45:07;68.72;;;48.60;;
56712;SDS011;42589;45.536;9.032;2022-12-29T14:51:31;73.80;;;51.17;;
56712;SDS011;42589;45.536;9.032;2022-12-29T14:57:34;72.20;;;50.90;;
56712;SDS011;42589;45.536;9.032;2022-12-29T15:00:35;67.28;;;47.67;;
56712;SDS011;42589;45.536;9.032;2022-12-29T15:03:38;66.70;;;48.08;;
56712;SDS011;42589;45.536;9.032;2022-12-29T15:06:43;64.30;;;49.03;;
56712;SDS011;42589;45.536;9.032;2022-12-29T15:09:51;64.90;;;47.45;;
56712;SDS011;42589;45.536;9.032;2022-12-29T15:12:54;65.65;;;47.33;;
56712;SDS011;42589;45.536;9.032;2022-12-29T15:15:54;66.32;;;47.85;;
56712;SDS011;42589;45.536;9.032;2022-12-29T15:18:55;70.55;;;47.22;;
56712;SDS011;42589;45.536;9.032;2022-12-29T15:21:56;63.15;;;45.58;;
56712;SDS011;42589;45.536;9.032;2022-12-29T15:24:57;61.78;;;44.92;;
56712;SDS011;42589;45.536;9.032;2022-12-29T15:28:00;60.50;;;44.08;;
56712;SDS011;42589;45.536;9.032;2022-12-29T15:31:25;52.33;;;40.75;;
56712;SDS011;42589;45.536;9.032;2022-12-29T15:34:29;55.83;;;40.42;;
56712;SDS011;42589;45.536;9.032;2022-12-29T15:37:33;50.80;;;38.83;;
56712;SDS011;42589;45.536;9.032;2022-12-29T15:40:35;48.28;;;36.50;;
56712;SDS011;42589;45.536;9.032;2022-12-29T15:46:45;46.08;;;35.75;;
56712;SDS011;42589;45.536;9.032;2022-12-29T15:49:50;49.60;;;36.22;;
56712;SDS011;42589;45.536;9.032;2022-12-29T15:52:51;46.63;;;34.58;;
56712;SDS011;42589;45.536;9.032;2022-12-29T15:55:52;46.70;;;34.90;;
56712;SDS011;42589;45.536;9.032;2022-12-29T15:58:52;48.38;;;35.67;;
56712;SDS011;42589;45.536;9.032;2022-12-29T16:01:54;47.17;;;36.17;;
56712;SDS011;42589;45.536;9.032;2022-12-29T16:04:55;45.13;;;34.08;;
56712;SDS011;42589;45.536;9.032;2022-12-29T16:07:57;45.38;;;34.25;;
56712;SDS011;42589;45.536;9.032;2022-12-29T16:10:59;49.58;;;37.90;;
56712;SDS011;42589;45.536;9.032;2022-12-29T16:14:00;51.50;;;37.28;;
56712;SDS011;42589;45.536;9.032;2022-12-29T16:17:02;48.38;;;38.35;;
56712;SDS011;42589;45.536;9.032;2022-12-29T16:20:25;50.83;;;37.83;;
56712;SDS011;42589;45.536;9.032;2022-12-29T16:23:25;53.63;;;37.70;;
56712;SDS011;42589;45.536;9.032;2022-12-29T16:26:27;49.97;;;37.92;;
56712;SDS011;42589;45.536;9.032;2022-12-29T16:29:28;51.20;;;37.08;;
56712;SDS011;42589;45.536;9.032;2022-12-29T16:32:30;51.90;;;38.55;;
56712;SDS011;42589;45.536;9.032;2022-12-29T16:35:39;52.53;;;38.47;;
56712;SDS011;42589;45.536;9.032;2022-12-29T16:38:40;51.47;;;38.42;;
56712;SDS011;42589;45.536;9.032;2022-12-29T16:41:41;51.08;;;37.35;;
56712;SDS011;42589;45.536;9.032;2022-12-29T16:44:42;49.63;;;36.85;;
56712;SDS011;42589;45.536;9.032;2022-12-29T16:47:42;50.53;;;38.45;;
56712;SDS011;42589;45.536;9.032;2022-12-29T16:50:44;48.30;;;37.10;;
56712;SDS011;42589;45.536;9.032;2022-12-29T16:53:52;51.72;;;37.72;;
56712;SDS011;42589;45.536;9.032;2022-12-29T16:56:54;49.75;;;36.28;;
56712;SDS011;42589;45.536;9.032;2022-12-29T16:59:59;53.22;;;38.80;;
56712;SDS011;42589;45.536;9.032;2022-12-29T17:03:00;55.33;;;39.75;;
56712;SDS011;42589;45.536;9.032;2022-12-29T17:06:01;55.67;;;39.58;;
56712;SDS011;42589;45.536;9.032;2022-12-29T17:09:10;55.80;;;40.00;;
56712;SDS011;42589;45.536;9.032;2022-12-29T17:12:21;58.85;;;41.60;;
56712;SDS011;42589;45.536;9.032;2022-12-29T17:15:26;58.60;;;42.28;;
56712;SDS011;42589;45.536;9.032;2022-12-29T17:18:28;68.10;;;47.08;;
56712;SDS011;42589;45.536;9.032;2022-12-29T17:21:29;80.07;;;52.63;;
56712;SDS011;42589;45.536;9.032;2022-12-29T17:24:31;77.57;;;55.65;;
56712;SDS011;42589;45.536;9.032;2022-12-29T17:27:33;76.80;;;52.53;;
56712;SDS011;42589;45.536;9.032;2022-12-29T17:30:34;71.63;;;50.08;;
56712;SDS011;42589;45.536;9.032;2022-12-29T17:33:36;73.80;;;50.10;;
56712;SDS011;42589;45.536;9.032;2022-12-29T17:36:37;78.82;;;55.38;;
56712;SDS011;42589;45.536;9.032;2022-12-29T17:39:38;72.05;;;49.38;;
56712;SDS011;42589;45.536;9.032;2022-12-29T17:42:41;64.35;;;45.88;;
56712;SDS011;42589;45.536;9.032;2022-12-29T17:45:42;58.28;;;42.75;;
56712;SDS011;42589;45.536;9.032;2022-12-29T17:48:43;57.70;;;42.70;;
56712;SDS011;42589;45.536;9.032;2022-12-29T17:51:44;60.45;;;42.50;;
56712;SDS011;42589;45.536;9.032;2022-12-29T17:54:50;64.00;;;45.55;;
56712;SDS011;42589;45.536;9.032;2022-12-29T17:57:50;61.72;;;44.53;;
56712;SDS011;42589;45.536;9.032;2022-12-29T18:00:57;60.58;;;42.30;;
56712;SDS011;42589;45.536;9.032;2022-12-29T18:03:58;57.55;;;42.22;;
56712;SDS011;42589;45.536;9.032;2022-12-29T18:06:59;56.22;;;41.10;;
56712;SDS011;42589;45.536;9.032;2022-12-29T18:09:59;55.53;;;40.15;;
56712;SDS011;42589;45.536;9.032;2022-12-29T18:13:01;53.13;;;38.42;;
56712;SDS011;42589;45.536;9.032;2022-12-29T18:16:02;55.22;;;40.58;;
56712;SDS011;42589;45.536;9.032;2022-12-29T18:19:03;57.15;;;41.17;;
56712;SDS011;42589;45.536;9.032;2022-12-29T18:22:03;61.38;;;41.80;;
56712;SDS011;42589;45.536;9.032;2022-12-29T18:25:12;56.95;;;42.20;;
56712;SDS011;42589;45.536;9.032;2022-12-29T18:28:18;58.08;;;41.40;;
56712;SDS011;42589;45.536;9.032;2022-12-29T18:31:19;58.40;;;41.60;;
56712;SDS011;42589;45.536;9.032;2022-12-29T18:34:20;61.35;;;41.97;;
56712;SDS011;42589;45.536;9.032;2022-12-29T18:37:20;57.70;;;41.47;;
56712;SDS011;42589;45.536;9.032;2022-12-29T18:40:21;55.65;;;40.15;;
56712;SDS011;42589;45.536;9.032;2022-12-29T18:43:21;67.05;;;47.55;;
56712;SDS011;42589;45.536;9.032;2022-12-29T18:46:22;64.15;;;45.58;;
56712;SDS011;42589;45.536;9.032;2022-12-29T18:49:23;60.38;;;44.72;;
56712;SDS011;42589;45.536;9.032;2022-12-29T18:52:24;65.25;;;45.88;;
56712;SDS011;42589;45.536;9.032;2022-12-29T18:55:26;60.72;;;44.63;;
56712;SDS011;42589;45.536;9.032;2022-12-29T18:58:27;64.13;;;43.40;;
56712;SDS011;42589;45.536;9.032;2022-12-29T19:01:28;64.93;;;43.80;;
56712;SDS011;42589;45.536;9.032;2022-12-29T19:04:29;65.20;;;44.40;;
56712;SDS011;42589;45.536;9.032;2022-12-29T19:07:30;63.30;;;43.17;;
56712;SDS011;42589;45.536;9.032;2022-12-29T19:10:31;62.42;;;44.97;;
56712;SDS011;42589;45.536;9.032;2022-12-29T19:13:32;62.95;;;44.60;;
56712;SDS011;42589;45.536;9.032;2022-12-29T19:16:32;65.30;;;44.40;;
56712;SDS011;42589;45.536;9.032;2022-12-29T19:19:33;63.53;;;45.78;;
56712;SDS011;42589;45.536;9.032;2022-12-29T19:22:34;66.35;;;45.22;;
56712;SDS011;42589;45.536;9.032;2022-12-29T19:25:35;69.35;;;46.60;;
56712;SDS011;42589;45.536;9.032;2022-12-29T19:28:36;64.90;;;47.15;;
56712;SDS011;42589;45.536;9.032;2022-12-29T19:31:36;64.95;;;44.88;;
56712;SDS011;42589;45.536;9.032;2022-12-29T19:34:37;63.28;;;45.42;;
56712;SDS011;42589;45.536;9.032;2022-12-29T19:37:38;64.93;;;45.97;;
56712;SDS011;42589;45.536;9.032;2022-12-29T19:40:40;68.20;;;47.85;;
56712;SDS011;42589;45.536;9.032;2022-12-29T19:43:41;68.30;;;47.97;;
56712;SDS011;42589;45.536;9.032;2022-12-29T19:46:42;68.45;;;46.65;;
56712;SDS011;42589;45.536;9.032;2022-12-29T19:49:43;73.03;;;49.72;;
56712;SDS011;42589;45.536;9.032;2022-12-29T19:52:43;70.65;;;48.55;;
56712;SDS011;42589;45.536;9.032;2022-12-29T19:55:47;69.43;;;48.95;;
56712;SDS011;42589;45.536;9.032;2022-12-29T19:58:47;68.57;;;46.88;;
56712;SDS011;42589;45.536;9.032;2022-12-29T20:01:49;68.22;;;46.25;;
56712;SDS011;42589;45.536;9.032;2022-12-29T20:04:50;67.72;;;46.55;;
56712;SDS011;42589;45.536;9.032;2022-12-29T20:07:50;65.05;;;46.63;;